Terminal Aerodrome Forecast
Issued by NWS Corpus Christi, TX

Home | Current Version | Previous Version | Text Only | Print | Product List | Glossary On
Versions: 1 2 3 4 5 6 7 8 9 10 11 12 13 14 15 16 17
000
FTUS44 KCRP 220100 AAA
TAFVCT
TAF AMD
KVCT 220155Z 2202/2224 16006KT P6SM SCT024 BKN035
     FM220500 17006KT P6SM OVC018
     FM220700 19004KT 3SM BR OVC008
     FM220900 VRB03KT 1SM BR OVC003
      TEMPO 2210/2214 1/2SM FG OVC002
     FM221530 23004KT 4SM BR BKN008 OVC015
     FM221700 22008KT P6SM SCT020
     FM221900 19011KT P6SM SKC=

USA.gov is the U.S. government's official web portal to all federal, state and local government web resources and services.